sensor_id;sensor_type;location;lat;lon;timestamp;P1;durP1;ratioP1;P2;durP2;ratioP2
57846;SDS011;43675;50.030;21.952;2024-01-30T00:02:11;40.90;;;36.50;;
57846;SDS011;43675;50.030;21.952;2024-01-30T00:05:01;38.70;;;34.80;;
57846;SDS011;43675;50.030;21.952;2024-01-30T00:10:26;37.50;;;33.80;;
57846;SDS011;43675;50.030;21.952;2024-01-30T00:12:53;37.80;;;34.00;;
57846;SDS011;43675;50.030;21.952;2024-01-30T00:15:19;34.20;;;30.60;;
57846;SDS011;43675;50.030;21.952;2024-01-30T00:17:46;32.70;;;29.40;;
57846;SDS011;43675;50.030;21.952;2024-01-30T00:20:15;30.00;;;27.00;;
57846;SDS011;43675;50.030;21.952;2024-01-30T00:23:05;32.60;;;29.40;;
57846;SDS011;43675;50.030;21.952;2024-01-30T00:25:42;29.60;;;26.70;;
57846;SDS011;43675;50.030;21.952;2024-01-30T00:28:20;30.10;;;27.10;;
57846;SDS011;43675;50.030;21.952;2024-01-30T00:39:49;28.10;;;25.40;;
57846;SDS011;43675;50.030;21.952;2024-01-30T00:42:29;27.60;;;25.10;;
57846;SDS011;43675;50.030;21.952;2024-01-30T00:50:57;29.30;;;26.60;;
57846;SDS011;43675;50.030;21.952;2024-01-30T00:53:25;30.10;;;27.30;;
57846;SDS011;43675;50.030;21.952;2024-01-30T01:04:55;25.50;;;23.20;;
57846;SDS011;43675;50.030;21.952;2024-01-30T01:07:31;25.80;;;23.60;;
57846;SDS011;43675;50.030;21.952;2024-01-30T01:10:09;23.80;;;21.70;;
57846;SDS011;43675;50.030;21.952;2024-01-30T01:13:20;26.00;;;23.60;;
57846;SDS011;43675;50.030;21.952;2024-01-30T01:15:53;24.40;;;22.20;;
57846;SDS011;43675;50.030;21.952;2024-01-30T01:18:20;24.10;;;22.00;;
57846;SDS011;43675;50.030;21.952;2024-01-30T01:26:38;22.90;;;21.00;;
57846;SDS011;43675;50.030;21.952;2024-01-30T01:29:30;23.50;;;21.40;;
57846;SDS011;43675;50.030;21.952;2024-01-30T01:32:24;22.70;;;20.80;;
57846;SDS011;43675;50.030;21.952;2024-01-30T01:35:02;23.30;;;21.30;;
57846;SDS011;43675;50.030;21.952;2024-01-30T01:37:29;23.30;;;21.30;;
57846;SDS011;43675;50.030;21.952;2024-01-30T01:40:02;23.40;;;21.30;;
57846;SDS011;43675;50.030;21.952;2024-01-30T01:42:29;22.90;;;20.90;;
57846;SDS011;43675;50.030;21.952;2024-01-30T01:45:28;22.80;;;20.80;;
57846;SDS011;43675;50.030;21.952;2024-01-30T01:50:48;22.80;;;20.80;;
57846;SDS011;43675;50.030;21.952;2024-01-30T01:53:31;23.10;;;21.20;;
57846;SDS011;43675;50.030;21.952;2024-01-30T02:02:23;22.50;;;20.60;;
57846;SDS011;43675;50.030;21.952;2024-01-30T02:05:18;21.90;;;20.10;;
57846;SDS011;43675;50.030;21.952;2024-01-30T02:10:44;22.70;;;20.90;;
57846;SDS011;43675;50.030;21.952;2024-01-30T02:13:55;22.30;;;20.60;;
57846;SDS011;43675;50.030;21.952;2024-01-30T02:16:30;21.70;;;19.90;;
57846;SDS011;43675;50.030;21.952;2024-01-30T02:19:16;22.60;;;20.80;;
57846;SDS011;43675;50.030;21.952;2024-01-30T02:22:24;23.90;;;22.00;;
57846;SDS011;43675;50.030;21.952;2024-01-30T02:27:43;23.30;;;21.50;;
57846;SDS011;43675;50.030;21.952;2024-01-30T02:30:46;24.70;;;22.60;;
57846;SDS011;43675;50.030;21.952;2024-01-30T02:45:09;23.50;;;21.70;;
57846;SDS011;43675;50.030;21.952;2024-01-30T03:08:37;23.90;;;22.00;;
57846;SDS011;43675;50.030;21.952;2024-01-30T03:11:26;23.50;;;21.70;;
57846;SDS011;43675;50.030;21.952;2024-01-30T03:17:29;24.50;;;22.50;;
57846;SDS011;43675;50.030;21.952;2024-01-30T03:22:50;24.40;;;22.40;;
57846;SDS011;43675;50.030;21.952;2024-01-30T03:25:27;24.40;;;22.60;;
57846;SDS011;43675;50.030;21.952;2024-01-30T03:28:06;24.80;;;22.90;;
57846;SDS011;43675;50.030;21.952;2024-01-30T03:33:36;24.40;;;22.50;;
57846;SDS011;43675;50.030;21.952;2024-01-30T03:38:58;24.70;;;22.80;;
57846;SDS011;43675;50.030;21.952;2024-01-30T03:41:52;24.20;;;22.30;;
57846;SDS011;43675;50.030;21.952;2024-01-30T03:44:22;24.80;;;22.80;;
57846;SDS011;43675;50.030;21.952;2024-01-30T03:46:59;25.00;;;23.00;;
57846;SDS011;43675;50.030;21.952;2024-01-30T03:49:28;24.60;;;22.70;;
57846;SDS011;43675;50.030;21.952;2024-01-30T03:55:20;24.50;;;22.50;;
57846;SDS011;43675;50.030;21.952;2024-01-30T03:58:07;25.40;;;23.40;;
57846;SDS011;43675;50.030;21.952;2024-01-30T04:00:56;26.20;;;24.10;;
57846;SDS011;43675;50.030;21.952;2024-01-30T04:03:37;26.40;;;24.30;;
57846;SDS011;43675;50.030;21.952;2024-01-30T04:08:59;26.30;;;24.20;;
57846;SDS011;43675;50.030;21.952;2024-01-30T04:11:32;27.50;;;25.20;;
57846;SDS011;43675;50.030;21.952;2024-01-30T04:14:19;27.50;;;25.20;;
57846;SDS011;43675;50.030;21.952;2024-01-30T04:17:09;27.00;;;24.80;;
57846;SDS011;43675;50.030;21.952;2024-01-30T04:19:49;27.40;;;25.10;;
57846;SDS011;43675;50.030;21.952;2024-01-30T04:25:01;27.20;;;25.00;;
57846;SDS011;43675;50.030;21.952;2024-01-30T04:27:40;28.40;;;26.10;;
57846;SDS011;43675;50.030;21.952;2024-01-30T04:33:01;27.50;;;25.30;;
57846;SDS011;43675;50.030;21.952;2024-01-30T04:36:09;28.20;;;25.80;;
57846;SDS011;43675;50.030;21.952;2024-01-30T04:44:45;28.60;;;26.10;;
57846;SDS011;43675;50.030;21.952;2024-01-30T04:47:23;29.60;;;27.10;;
57846;SDS011;43675;50.030;21.952;2024-01-30T04:53:10;28.50;;;26.20;;
57846;SDS011;43675;50.030;21.952;2024-01-30T04:58:27;28.90;;;26.50;;
57846;SDS011;43675;50.030;21.952;2024-01-30T05:01:05;28.60;;;26.30;;
57846;SDS011;43675;50.030;21.952;2024-01-30T05:06:40;29.40;;;26.80;;
57846;SDS011;43675;50.030;21.952;2024-01-30T05:12:11;29.40;;;27.00;;
57846;SDS011;43675;50.030;21.952;2024-01-30T05:20:47;28.60;;;26.30;;
57846;SDS011;43675;50.030;21.952;2024-01-30T05:23:23;29.30;;;26.90;;
57846;SDS011;43675;50.030;21.952;2024-01-30T05:32:07;30.70;;;28.10;;
57846;SDS011;43675;50.030;21.952;2024-01-30T05:41:10;27.90;;;25.70;;
57846;SDS011;43675;50.030;21.952;2024-01-30T05:43:57;28.10;;;25.70;;
57846;SDS011;43675;50.030;21.952;2024-01-30T05:49:50;27.80;;;25.50;;
57846;SDS011;43675;50.030;21.952;2024-01-30T05:58:46;27.80;;;25.40;;
57846;SDS011;43675;50.030;21.952;2024-01-30T06:01:24;26.50;;;24.40;;
57846;SDS011;43675;50.030;21.952;2024-01-30T06:12:42;25.90;;;23.80;;
57846;SDS011;43675;50.030;21.952;2024-01-30T06:18:27;27.90;;;25.40;;
57846;SDS011;43675;50.030;21.952;2024-01-30T06:21:16;26.90;;;24.50;;
57846;SDS011;43675;50.030;21.952;2024-01-30T06:23:51;25.80;;;23.50;;
57846;SDS011;43675;50.030;21.952;2024-01-30T06:29:18;26.10;;;23.70;;
57846;SDS011;43675;50.030;21.952;2024-01-30T06:35:34;25.80;;;23.40;;
57846;SDS011;43675;50.030;21.952;2024-01-30T06:44:12;25.90;;;23.50;;
57846;SDS011;43675;50.030;21.952;2024-01-30T06:47:07;24.90;;;22.70;;
57846;SDS011;43675;50.030;21.952;2024-01-30T06:52:43;25.50;;;23.10;;
57846;SDS011;43675;50.030;21.952;2024-01-30T06:58:04;23.80;;;21.80;;
57846;SDS011;43675;50.030;21.952;2024-01-30T07:03:33;25.40;;;23.10;;
57846;SDS011;43675;50.030;21.952;2024-01-30T07:09:04;26.80;;;24.50;;
57846;SDS011;43675;50.030;21.952;2024-01-30T07:11:36;26.20;;;24.00;;
57846;SDS011;43675;50.030;21.952;2024-01-30T07:14:08;23.90;;;21.70;;
57846;SDS011;43675;50.030;21.952;2024-01-30T07:16:40;23.90;;;21.80;;
57846;SDS011;43675;50.030;21.952;2024-01-30T07:19:10;24.20;;;22.00;;
57846;SDS011;43675;50.030;21.952;2024-01-30T07:21:46;24.00;;;22.10;;
57846;SDS011;43675;50.030;21.952;2024-01-30T07:24:32;23.90;;;21.90;;
57846;SDS011;43675;50.030;21.952;2024-01-30T07:27:21;22.10;;;20.20;;
57846;SDS011;43675;50.030;21.952;2024-01-30T07:29:50;23.80;;;21.70;;
57846;SDS011;43675;50.030;21.952;2024-01-30T07:32:43;22.80;;;20.80;;
57846;SDS011;43675;50.030;21.952;2024-01-30T07:35:15;23.90;;;21.70;;
57846;SDS011;43675;50.030;21.952;2024-01-30T07:37:45;23.90;;;21.80;;
57846;SDS011;43675;50.030;21.952;2024-01-30T07:40:26;23.80;;;21.80;;
57846;SDS011;43675;50.030;21.952;2024-01-30T07:43:11;22.90;;;20.90;;
57846;SDS011;43675;50.030;21.952;2024-01-30T07:48:34;22.20;;;20.30;;
57846;SDS011;43675;50.030;21.952;2024-01-30T07:51:15;22.20;;;20.30;;
57846;SDS011;43675;50.030;21.952;2024-01-30T07:54:01;22.50;;;20.70;;
57846;SDS011;43675;50.030;21.952;2024-01-30T07:56:28;22.60;;;20.80;;
57846;SDS011;43675;50.030;21.952;2024-01-30T07:59:20;23.20;;;21.30;;
57846;SDS011;43675;50.030;21.952;2024-01-30T08:01:51;22.00;;;20.00;;
57846;SDS011;43675;50.030;21.952;2024-01-30T08:04:21;22.30;;;20.50;;
57846;SDS011;43675;50.030;21.952;2024-01-30T08:06:50;22.90;;;20.90;;
57846;SDS011;43675;50.030;21.952;2024-01-30T08:09:19;21.80;;;19.80;;
57846;SDS011;43675;50.030;21.952;2024-01-30T08:11:52;21.90;;;19.90;;
57846;SDS011;43675;50.030;21.952;2024-01-30T08:14:30;22.70;;;20.60;;
57846;SDS011;43675;50.030;21.952;2024-01-30T08:16:59;22.50;;;20.60;;
57846;SDS011;43675;50.030;21.952;2024-01-30T08:19:28;21.80;;;20.00;;
57846;SDS011;43675;50.030;21.952;2024-01-30T08:21:58;22.30;;;20.40;;
57846;SDS011;43675;50.030;21.952;2024-01-30T08:24:30;22.30;;;20.10;;
57846;SDS011;43675;50.030;21.952;2024-01-30T08:27:05;21.50;;;19.70;;
57846;SDS011;43675;50.030;21.952;2024-01-30T08:29:34;21.90;;;19.90;;
57846;SDS011;43675;50.030;21.952;2024-01-30T08:32:09;21.70;;;19.80;;
57846;SDS011;43675;50.030;21.952;2024-01-30T08:34:42;22.30;;;20.40;;
57846;SDS011;43675;50.030;21.952;2024-01-30T08:37:09;21.40;;;19.50;;
57846;SDS011;43675;50.030;21.952;2024-01-30T08:39:56;21.50;;;19.80;;
57846;SDS011;43675;50.030;21.952;2024-01-30T08:42:25;21.40;;;19.50;;
57846;SDS011;43675;50.030;21.952;2024-01-30T08:44:55;20.90;;;19.20;;
57846;SDS011;43675;50.030;21.952;2024-01-30T08:47:25;20.70;;;18.80;;
57846;SDS011;43675;50.030;21.952;2024-01-30T08:49:54;21.30;;;19.20;;
57846;SDS011;43675;50.030;21.952;2024-01-30T08:52:23;21.20;;;19.30;;
57846;SDS011;43675;50.030;21.952;2024-01-30T08:54:59;20.80;;;18.80;;
57846;SDS011;43675;50.030;21.952;2024-01-30T08:57:31;21.00;;;19.00;;
57846;SDS011;43675;50.030;21.952;2024-01-30T09:00:10;21.80;;;19.80;;
57846;SDS011;43675;50.030;21.952;2024-01-30T09:02:45;21.10;;;19.20;;
57846;SDS011;43675;50.030;21.952;2024-01-30T09:05:11;20.40;;;18.50;;
57846;SDS011;43675;50.030;21.952;2024-01-30T09:07:44;21.40;;;19.50;;
57846;SDS011;43675;50.030;21.952;2024-01-30T09:10:16;21.10;;;19.40;;
57846;SDS011;43675;50.030;21.952;2024-01-30T09:12:49;21.50;;;19.70;;
57846;SDS011;43675;50.030;21.952;2024-01-30T09:15:16;20.90;;;18.90;;
57846;SDS011;43675;50.030;21.952;2024-01-30T09:17:46;20.30;;;18.60;;
57846;SDS011;43675;50.030;21.952;2024-01-30T09:20:19;20.40;;;18.60;;
57846;SDS011;43675;50.030;21.952;2024-01-30T09:22:51;20.40;;;18.50;;
57846;SDS011;43675;50.030;21.952;2024-01-30T09:25:18;20.40;;;18.70;;
57846;SDS011;43675;50.030;21.952;2024-01-30T09:27:51;21.30;;;19.60;;
57846;SDS011;43675;50.030;21.952;2024-01-30T09:30:41;21.50;;;19.80;;
57846;SDS011;43675;50.030;21.952;2024-01-30T09:33:09;21.60;;;19.80;;
57846;SDS011;43675;50.030;21.952;2024-01-30T09:35:39;20.70;;;18.90;;
57846;SDS011;43675;50.030;21.952;2024-01-30T09:38:15;20.40;;;18.80;;
57846;SDS011;43675;50.030;21.952;2024-01-30T09:40:44;20.60;;;19.10;;
57846;SDS011;43675;50.030;21.952;2024-01-30T09:43:15;21.40;;;19.80;;
57846;SDS011;43675;50.030;21.952;2024-01-30T09:45:51;20.50;;;19.00;;
57846;SDS011;43675;50.030;21.952;2024-01-30T09:48:20;21.40;;;19.70;;
57846;SDS011;43675;50.030;21.952;2024-01-30T09:50:48;21.90;;;20.10;;
57846;SDS011;43675;50.030;21.952;2024-01-30T09:55:52;21.40;;;19.70;;
57846;SDS011;43675;50.030;21.952;2024-01-30T09:58:19;20.40;;;18.90;;
57846;SDS011;43675;50.030;21.952;2024-01-30T10:00:45;20.50;;;19.00;;
57846;SDS011;43675;50.030;21.952;2024-01-30T10:03:12;21.10;;;19.20;;
57846;SDS011;43675;50.030;21.952;2024-01-30T10:05:39;20.60;;;19.00;;
57846;SDS011;43675;50.030;21.952;2024-01-30T10:08:07;19.90;;;18.30;;
57846;SDS011;43675;50.030;21.952;2024-01-30T10:10:34;20.30;;;18.60;;
57846;SDS011;43675;50.030;21.952;2024-01-30T10:13:01;21.20;;;19.30;;
57846;SDS011;43675;50.030;21.952;2024-01-30T10:15:28;19.90;;;18.20;;
57846;SDS011;43675;50.030;21.952;2024-01-30T10:17:55;21.70;;;19.90;;
57846;SDS011;43675;50.030;21.952;2024-01-30T10:20:21;21.00;;;19.20;;
57846;SDS011;43675;50.030;21.952;2024-01-30T10:22:51;21.70;;;19.90;;
57846;SDS011;43675;50.030;21.952;2024-01-30T10:25:21;21.10;;;19.40;;
57846;SDS011;43675;50.030;21.952;2024-01-30T10:27:52;20.20;;;18.50;;
57846;SDS011;43675;50.030;21.952;2024-01-30T10:30:22;20.40;;;18.70;;
57846;SDS011;43675;50.030;21.952;2024-01-30T10:32:49;20.40;;;18.60;;
57846;SDS011;43675;50.030;21.952;2024-01-30T10:35:22;19.70;;;17.80;;
57846;SDS011;43675;50.030;21.952;2024-01-30T10:40:42;19.50;;;17.80;;
57846;SDS011;43675;50.030;21.952;2024-01-30T10:43:10;18.70;;;17.10;;
57846;SDS011;43675;50.030;21.952;2024-01-30T10:45:38;19.60;;;17.90;;
57846;SDS011;43675;50.030;21.952;2024-01-30T10:48:08;20.20;;;18.50;;
57846;SDS011;43675;50.030;21.952;2024-01-30T10:50:36;21.10;;;19.40;;
57846;SDS011;43675;50.030;21.952;2024-01-30T10:53:03;19.20;;;17.60;;
57846;SDS011;43675;50.030;21.952;2024-01-30T10:55:31;19.40;;;17.80;;
57846;SDS011;43675;50.030;21.952;2024-01-30T10:57:59;19.00;;;17.20;;
57846;SDS011;43675;50.030;21.952;2024-01-30T11:00:26;18.40;;;16.80;;
57846;SDS011;43675;50.030;21.952;2024-01-30T11:02:53;19.90;;;18.20;;
57846;SDS011;43675;50.030;21.952;2024-01-30T11:05:23;19.20;;;17.60;;
57846;SDS011;43675;50.030;21.952;2024-01-30T11:07:51;19.30;;;17.70;;
57846;SDS011;43675;50.030;21.952;2024-01-30T11:10:18;19.20;;;17.50;;
57846;SDS011;43675;50.030;21.952;2024-01-30T11:12:45;19.50;;;17.80;;
57846;SDS011;43675;50.030;21.952;2024-01-30T11:15:13;19.50;;;17.90;;
57846;SDS011;43675;50.030;21.952;2024-01-30T11:17:41;18.90;;;17.30;;
57846;SDS011;43675;50.030;21.952;2024-01-30T11:20:23;19.50;;;17.90;;
57846;SDS011;43675;50.030;21.952;2024-01-30T11:22:54;19.60;;;17.80;;
57846;SDS011;43675;50.030;21.952;2024-01-30T11:25:29;20.00;;;18.30;;
57846;SDS011;43675;50.030;21.952;2024-01-30T11:27:58;19.80;;;18.10;;
57846;SDS011;43675;50.030;21.952;2024-01-30T11:30:25;20.10;;;18.30;;
57846;SDS011;43675;50.030;21.952;2024-01-30T11:33:11;19.30;;;17.70;;
57846;SDS011;43675;50.030;21.952;2024-01-30T11:35:39;19.10;;;17.60;;
57846;SDS011;43675;50.030;21.952;2024-01-30T11:38:08;19.30;;;17.50;;
57846;SDS011;43675;50.030;21.952;2024-01-30T11:40:37;19.30;;;17.60;;
57846;SDS011;43675;50.030;21.952;2024-01-30T11:43:05;20.70;;;18.90;;
57846;SDS011;43675;50.030;21.952;2024-01-30T11:45:33;19.90;;;18.20;;
57846;SDS011;43675;50.030;21.952;2024-01-30T11:48:01;19.80;;;17.90;;
57846;SDS011;43675;50.030;21.952;2024-01-30T11:50:29;19.50;;;17.70;;
57846;SDS011;43675;50.030;21.952;2024-01-30T11:52:56;19.70;;;18.10;;
57846;SDS011;43675;50.030;21.952;2024-01-30T11:55:24;20.70;;;19.00;;
57846;SDS011;43675;50.030;21.952;2024-01-30T11:57:57;21.20;;;19.40;;
57846;SDS011;43675;50.030;21.952;2024-01-30T12:00:25;20.70;;;19.10;;
57846;SDS011;43675;50.030;21.952;2024-01-30T12:02:55;20.70;;;18.90;;
57846;SDS011;43675;50.030;21.952;2024-01-30T12:05:22;20.30;;;18.60;;
57846;SDS011;43675;50.030;21.952;2024-01-30T12:07:57;21.00;;;19.20;;
57846;SDS011;43675;50.030;21.952;2024-01-30T12:10:24;21.20;;;19.30;;
57846;SDS011;43675;50.030;21.952;2024-01-30T12:12:51;22.70;;;20.50;;
57846;SDS011;43675;50.030;21.952;2024-01-30T12:15:18;21.30;;;19.40;;
57846;SDS011;43675;50.030;21.952;2024-01-30T12:17:47;21.20;;;19.30;;
57846;SDS011;43675;50.030;21.952;2024-01-30T12:20:20;21.20;;;19.30;;
57846;SDS011;43675;50.030;21.952;2024-01-30T12:22:47;21.00;;;19.20;;
57846;SDS011;43675;50.030;21.952;2024-01-30T12:25:22;21.60;;;19.70;;
57846;SDS011;43675;50.030;21.952;2024-01-30T12:27:49;20.10;;;18.40;;
57846;SDS011;43675;50.030;21.952;2024-01-30T12:30:17;21.30;;;19.30;;
57846;SDS011;43675;50.030;21.952;2024-01-30T12:32:48;21.10;;;19.20;;
57846;SDS011;43675;50.030;21.952;2024-01-30T12:35:17;21.10;;;19.20;;
57846;SDS011;43675;50.030;21.952;2024-01-30T12:37:47;20.60;;;18.80;;
57846;SDS011;43675;50.030;21.952;2024-01-30T12:40:15;20.50;;;18.60;;
57846;SDS011;43675;50.030;21.952;2024-01-30T12:42:42;20.70;;;18.90;;
57846;SDS011;43675;50.030;21.952;2024-01-30T12:45:10;20.90;;;19.00;;
57846;SDS011;43675;50.030;21.952;2024-01-30T12:47:36;20.40;;;18.60;;
57846;SDS011;43675;50.030;21.952;2024-01-30T12:50:09;20.30;;;18.50;;
57846;SDS011;43675;50.030;21.952;2024-01-30T12:52:36;21.00;;;19.20;;
57846;SDS011;43675;50.030;21.952;2024-01-30T12:55:03;21.50;;;19.70;;
57846;SDS011;43675;50.030;21.952;2024-01-30T12:57:30;21.60;;;19.80;;
57846;SDS011;43675;50.030;21.952;2024-01-30T12:59:57;20.60;;;18.80;;
57846;SDS011;43675;50.030;21.952;2024-01-30T13:02:24;21.40;;;19.50;;
57846;SDS011;43675;50.030;21.952;2024-01-30T13:04:51;21.10;;;19.20;;
57846;SDS011;43675;50.030;21.952;2024-01-30T13:07:24;20.50;;;18.80;;
57846;SDS011;43675;50.030;21.952;2024-01-30T13:09:53;21.00;;;19.20;;
57846;SDS011;43675;50.030;21.952;2024-01-30T13:12:23;21.90;;;20.00;;
57846;SDS011;43675;50.030;21.952;2024-01-30T13:14:50;21.30;;;19.50;;
57846;SDS011;43675;50.030;21.952;2024-01-30T13:17:19;22.80;;;20.70;;
57846;SDS011;43675;50.030;21.952;2024-01-30T13:19:49;21.90;;;20.00;;
57846;SDS011;43675;50.030;21.952;2024-01-30T13:22:16;21.30;;;19.40;;
57846;SDS011;43675;50.030;21.952;2024-01-30T13:24:42;23.10;;;20.80;;
57846;SDS011;43675;50.030;21.952;2024-01-30T13:27:09;23.50;;;21.20;;
57846;SDS011;43675;50.030;21.952;2024-01-30T13:29:36;23.40;;;21.20;;
57846;SDS011;43675;50.030;21.952;2024-01-30T13:32:03;21.30;;;19.60;;
57846;SDS011;43675;50.030;21.952;2024-01-30T13:34:30;21.50;;;19.60;;
57846;SDS011;43675;50.030;21.952;2024-01-30T13:37:00;22.30;;;20.20;;
57846;SDS011;43675;50.030;21.952;2024-01-30T13:39:26;22.20;;;20.10;;
57846;SDS011;43675;50.030;21.952;2024-01-30T13:41:53;21.40;;;19.50;;
57846;SDS011;43675;50.030;21.952;2024-01-30T13:44:20;21.10;;;19.40;;
57846;SDS011;43675;50.030;21.952;2024-01-30T13:46:47;21.50;;;19.50;;
57846;SDS011;43675;50.030;21.952;2024-01-30T13:49:21;21.10;;;19.20;;
57846;SDS011;43675;50.030;21.952;2024-01-30T13:51:48;21.80;;;20.00;;
57846;SDS011;43675;50.030;21.952;2024-01-30T13:54:15;21.60;;;19.70;;
57846;SDS011;43675;50.030;21.952;2024-01-30T13:56:44;21.50;;;19.60;;
57846;SDS011;43675;50.030;21.952;2024-01-30T13:59:11;22.60;;;20.70;;
57846;SDS011;43675;50.030;21.952;2024-01-30T14:01:38;21.10;;;19.20;;
57846;SDS011;43675;50.030;21.952;2024-01-30T14:04:07;21.00;;;19.10;;
57846;SDS011;43675;50.030;21.952;2024-01-30T14:06:40;21.20;;;19.40;;
57846;SDS011;43675;50.030;21.952;2024-01-30T14:09:10;21.60;;;19.70;;
57846;SDS011;43675;50.030;21.952;2024-01-30T14:11:37;20.90;;;19.00;;
57846;SDS011;43675;50.030;21.952;2024-01-30T14:14:04;21.70;;;19.70;;
57846;SDS011;43675;50.030;21.952;2024-01-30T14:16:46;22.60;;;20.50;;
57846;SDS011;43675;50.030;21.952;2024-01-30T14:19:15;23.20;;;21.00;;
57846;SDS011;43675;50.030;21.952;2024-01-30T14:21:48;22.80;;;20.60;;
57846;SDS011;43675;50.030;21.952;2024-01-30T14:24:15;22.60;;;20.50;;
57846;SDS011;43675;50.030;21.952;2024-01-30T14:26:47;22.20;;;20.20;;
57846;SDS011;43675;50.030;21.952;2024-01-30T14:29:17;22.20;;;20.30;;
57846;SDS011;43675;50.030;21.952;2024-01-30T14:34:40;22.20;;;20.20;;
57846;SDS011;43675;50.030;21.952;2024-01-30T14:37:06;22.30;;;20.30;;
57846;SDS011;43675;50.030;21.952;2024-01-30T14:39:36;24.20;;;22.10;;
57846;SDS011;43675;50.030;21.952;2024-01-30T14:42:06;25.70;;;23.20;;
57846;SDS011;43675;50.030;21.952;2024-01-30T14:44:42;26.10;;;23.70;;
57846;SDS011;43675;50.030;21.952;2024-01-30T14:47:12;25.40;;;23.00;;
57846;SDS011;43675;50.030;21.952;2024-01-30T14:49:59;26.30;;;23.90;;
57846;SDS011;43675;50.030;21.952;2024-01-30T14:52:25;28.00;;;25.20;;
57846;SDS011;43675;50.030;21.952;2024-01-30T14:54:55;26.60;;;24.10;;
57846;SDS011;43675;50.030;21.952;2024-01-30T14:57:23;26.00;;;23.60;;
57846;SDS011;43675;50.030;21.952;2024-01-30T14:59:57;23.80;;;21.50;;
57846;SDS011;43675;50.030;21.952;2024-01-30T15:02:34;24.50;;;22.20;;
57846;SDS011;43675;50.030;21.952;2024-01-30T15:05:04;24.10;;;21.90;;
57846;SDS011;43675;50.030;21.952;2024-01-30T15:07:34;24.80;;;22.40;;
57846;SDS011;43675;50.030;21.952;2024-01-30T15:10:01;25.10;;;22.70;;
57846;SDS011;43675;50.030;21.952;2024-01-30T15:12:31;24.70;;;22.20;;
57846;SDS011;43675;50.030;21.952;2024-01-30T15:14:57;24.40;;;22.00;;
57846;SDS011;43675;50.030;21.952;2024-01-30T15:17:24;24.10;;;21.80;;
57846;SDS011;43675;50.030;21.952;2024-01-30T15:20:13;25.20;;;22.70;;
57846;SDS011;43675;50.030;21.952;2024-01-30T15:22:39;24.50;;;22.20;;
57846;SDS011;43675;50.030;21.952;2024-01-30T15:25:09;23.60;;;21.40;;
57846;SDS011;43675;50.030;21.952;2024-01-30T15:27:36;26.60;;;24.00;;
57846;SDS011;43675;50.030;21.952;2024-01-30T15:30:05;25.80;;;23.40;;
57846;SDS011;43675;50.030;21.952;2024-01-30T15:32:33;27.10;;;24.40;;
57846;SDS011;43675;50.030;21.952;2024-01-30T15:35:00;25.40;;;23.00;;
57846;SDS011;43675;50.030;21.952;2024-01-30T15:37:26;27.80;;;25.00;;
57846;SDS011;43675;50.030;21.952;2024-01-30T15:39:53;29.50;;;26.40;;
57846;SDS011;43675;50.030;21.952;2024-01-30T15:42:19;32.40;;;28.70;;
57846;SDS011;43675;50.030;21.952;2024-01-30T15:44:46;29.80;;;26.70;;
57846;SDS011;43675;50.030;21.952;2024-01-30T15:47:13;27.20;;;24.60;;
57846;SDS011;43675;50.030;21.952;2024-01-30T15:49:40;25.80;;;23.20;;
57846;SDS011;43675;50.030;21.952;2024-01-30T15:52:10;26.00;;;23.50;;
57846;SDS011;43675;50.030;21.952;2024-01-30T15:54:42;26.20;;;23.70;;
57846;SDS011;43675;50.030;21.952;2024-01-30T15:57:19;25.70;;;23.10;;
57846;SDS011;43675;50.030;21.952;2024-01-30T15:59:48;25.70;;;23.10;;
57846;SDS011;43675;50.030;21.952;2024-01-30T16:02:15;27.00;;;23.90;;
57846;SDS011;43675;50.030;21.952;2024-01-30T16:04:41;27.90;;;24.90;;
57846;SDS011;43675;50.030;21.952;2024-01-30T16:07:08;29.30;;;26.30;;
57846;SDS011;43675;50.030;21.952;2024-01-30T16:09:34;28.70;;;25.70;;
57846;SDS011;43675;50.030;21.952;2024-01-30T16:12:08;29.10;;;24.60;;
57846;SDS011;43675;50.030;21.952;2024-01-30T16:14:34;26.70;;;24.00;;
57846;SDS011;43675;50.030;21.952;2024-01-30T16:17:01;28.10;;;25.20;;
57846;SDS011;43675;50.030;21.952;2024-01-30T16:19:30;26.20;;;23.60;;
57846;SDS011;43675;50.030;21.952;2024-01-30T16:21:57;27.70;;;24.80;;
57846;SDS011;43675;50.030;21.952;2024-01-30T16:24:23;28.20;;;25.40;;
57846;SDS011;43675;50.030;21.952;2024-01-30T16:26:50;29.10;;;26.20;;
57846;SDS011;43675;50.030;21.952;2024-01-30T16:29:16;30.70;;;27.50;;
57846;SDS011;43675;50.030;21.952;2024-01-30T16:31:43;30.20;;;27.10;;
57846;SDS011;43675;50.030;21.952;2024-01-30T16:34:09;28.30;;;25.50;;
57846;SDS011;43675;50.030;21.952;2024-01-30T16:36:36;28.60;;;25.80;;
57846;SDS011;43675;50.030;21.952;2024-01-30T16:39:03;29.20;;;26.20;;
57846;SDS011;43675;50.030;21.952;2024-01-30T16:41:29;30.00;;;26.90;;
57846;SDS011;43675;50.030;21.952;2024-01-30T16:43:56;31.90;;;28.40;;
57846;SDS011;43675;50.030;21.952;2024-01-30T16:46:22;31.20;;;27.80;;
57846;SDS011;43675;50.030;21.952;2024-01-30T16:48:49;33.20;;;28.40;;
57846;SDS011;43675;50.030;21.952;2024-01-30T16:51:16;31.70;;;28.20;;
57846;SDS011;43675;50.030;21.952;2024-01-30T16:53:42;35.70;;;31.20;;
57846;SDS011;43675;50.030;21.952;2024-01-30T16:56:09;43.00;;;36.60;;
57846;SDS011;43675;50.030;21.952;2024-01-30T16:58:36;132.30;;;76.00;;
57846;SDS011;43675;50.030;21.952;2024-01-30T17:01:23;41.80;;;36.10;;
57846;SDS011;43675;50.030;21.952;2024-01-30T17:03:50;40.60;;;36.40;;
57846;SDS011;43675;50.030;21.952;2024-01-30T17:06:17;37.80;;;33.70;;
57846;SDS011;43675;50.030;21.952;2024-01-30T17:08:50;36.40;;;32.60;;
57846;SDS011;43675;50.030;21.952;2024-01-30T17:11:17;34.00;;;30.50;;
57846;SDS011;43675;50.030;21.952;2024-01-30T17:13:54;32.60;;;29.20;;
57846;SDS011;43675;50.030;21.952;2024-01-30T17:16:24;35.70;;;31.80;;
57846;SDS011;43675;50.030;21.952;2024-01-30T17:19:16;48.60;;;38.30;;
57846;SDS011;43675;50.030;21.952;2024-01-30T17:21:43;39.60;;;34.10;;
57846;SDS011;43675;50.030;21.952;2024-01-30T17:24:09;47.70;;;37.60;;
57846;SDS011;43675;50.030;21.952;2024-01-30T17:26:36;44.60;;;35.50;;
57846;SDS011;43675;50.030;21.952;2024-01-30T17:29:03;40.90;;;35.20;;
57846;SDS011;43675;50.030;21.952;2024-01-30T17:31:38;41.80;;;37.10;;
57846;SDS011;43675;50.030;21.952;2024-01-30T17:34:07;35.30;;;31.50;;
57846;SDS011;43675;50.030;21.952;2024-01-30T17:36:50;33.50;;;29.90;;
57846;SDS011;43675;50.030;21.952;2024-01-30T17:39:46;38.20;;;33.80;;
57846;SDS011;43675;50.030;21.952;2024-01-30T17:42:21;40.30;;;35.70;;
57846;SDS011;43675;50.030;21.952;2024-01-30T17:44:59;36.10;;;32.40;;
57846;SDS011;43675;50.030;21.952;2024-01-30T17:47:50;33.60;;;30.20;;
57846;SDS011;43675;50.030;21.952;2024-01-30T17:50:27;34.20;;;30.90;;
57846;SDS011;43675;50.030;21.952;2024-01-30T17:53:03;37.70;;;33.70;;
57846;SDS011;43675;50.030;21.952;2024-01-30T17:55:41;35.10;;;31.50;;
57846;SDS011;43675;50.030;21.952;2024-01-30T17:58:15;36.50;;;32.60;;